This is the latest recevied weather packets stored in our database for station/object F4CYQ-10. If no packets are shown the sender has not sent any weather packets the latest 10 day(s).
| Time | Temp. | Humidity | Pressure | Rain* | Wind** | Luminosity | Snow |
|---|---|---|---|---|---|---|---|
| 1777279290 | 19.44° C | 61% | 1021.9 hPa | - | - | - | - |
| 1777278389 | 19.44° C | 61% | 1021.9 hPa | - | - | - | - |
| 1777278096 | 17.22° C | 61% | 1021.8 hPa | - | - | - | - |
| 1777277195 | 17.22° C | 61% | 1021.8 hPa | - | - | - | - |
| 1777276294 | 17.78° C | 61% | 1021.9 hPa | - | - | - | - |
| 1777275677 | 18.89° C | 61% | 1022.1 hPa | - | - | - | - |
| 1777275393 | 18.89° C | 61% | 1022.1 hPa | - | - | - | - |
| 1777275313 | -5° C | 100% | 4.8 hPa | - | - | - | - |
| 1777275021 | 18.33° C | 61% | 1022 hPa | - | - | - | - |
| 1777274120 | 17.78° C | 59% | 1022 hPa | - | - | - | - |
| 1777273219 | 17.22° C | 60% | 1021.9 hPa | - | - | - | - |
| 1777272318 | -5° C | 100% | 4.8 hPa | - | - | - | - |
| 1777271889 | 17.22° C | 59% | 1021.9 hPa | - | - | - | - |
| 1777270988 | 17.22° C | 55% | 1021.7 hPa | - | - | - | - |
| 1777270578 | -5° C | 100% | 4.8 hPa | - | - | - | - |
| 1777270086 | 17.22° C | 55% | 1021.7 hPa | - | - | - | - |
| 1777269185 | -5° C | 100% | 4.8 hPa | - | - | - | - |
| 1777268732 | 17.22° C | 54% | 1021.5 hPa | - | - | - | - |
| 1777267830 | 17.78° C | 56% | 1021.6 hPa | - | - | - | - |
| 1777266929 | 17.78° C | 56% | 1021.5 hPa | - | - | - | - |
| 1777266028 | 18.89° C | 56% | 1021.4 hPa | - | - | - | - |
| 1777265432 | 18.89° C | 56% | 1021.4 hPa | - | - | - | - |
| 1777264531 | 18.89° C | 56% | 1021.4 hPa | - | - | - | - |
| 1777263630 | 20° C | 55% | 1021.2 hPa | - | - | - | - |
| 1777262729 | 20° C | 55% | 1021.2 hPa | - | - | - | - |
* Rain since midnight (hover to see other rain measurements)
** Current wind speed in m/s (hover to see current wind gust speed)